Time;durP1;ratioP1;P1;durP2;ratioP2;P2;SDS_P1;SDS_P2;PMS_P1;PMS_P2;Temp;Humidity;BMP_temperature;BMP_pressure;BME280_temperature;BME280_humidity;BME280_pressure;Samples;Min_cycle;Max_cycle;Signal;HPM_P1;HPM_P2
2023/12/03 00:02:17;;;;;;;92.33;34.20;;;;;;;;;;4873580;29;20301;-62
2023/12/03 00:04:43;;;;;;;93.03;33.13;;;;;;;;;;4872314;29;20669;-62
2023/12/03 00:07:09;;;;;;;86.10;33.37;;;;;;;;;;4873549;29;20305;-62
2023/12/03 00:09:36;;;;;;;89.27;33.00;;;;;;;;;;4873171;29;20316;-62
2023/12/03 00:12:04;;;;;;;93.97;33.43;;;;;;;;;;4872992;29;20373;-62
2023/12/03 00:14:30;;;;;;;99.27;32.57;;;;;;;;;;4874413;29;20313;-62
2023/12/03 00:16:56;;;;;;;89.77;29.47;;;;;;;;;;4873719;29;20293;-62
2023/12/03 00:19:22;;;;;;;89.20;32.10;;;;;;;;;;4875072;29;20320;-62
2023/12/03 00:21:48;;;;;;;82.57;31.17;;;;;;;;;;4873131;29;20320;-62
2023/12/03 00:24:14;;;;;;;73.13;28.90;;;;;;;;;;4873706;29;20660;-62
2023/12/03 00:26:40;;;;;;;79.07;29.53;;;;;;;;;;4871664;29;20829;-62
2023/12/03 00:29:06;;;;;;;83.97;31.47;;;;;;;;;;4874906;29;20668;-62
2023/12/03 00:31:33;;;;;;;94.87;33.63;;;;;;;;;;4871898;29;20728;-63
2023/12/03 00:33:59;;;;;;;80.67;31.23;;;;;;;;;;4873870;29;20285;-62
2023/12/03 00:36:25;;;;;;;83.57;30.93;;;;;;;;;;4872857;29;20684;-62
2023/12/03 00:38:51;;;;;;;85.67;30.23;;;;;;;;;;4874336;29;20488;-62
2023/12/03 00:41:17;;;;;;;81.33;30.77;;;;;;;;;;4874247;29;20339;-62
2023/12/03 00:43:43;;;;;;;80.23;31.83;;;;;;;;;;4873732;29;20650;-62
2023/12/03 00:46:09;;;;;;;78.37;31.43;;;;;;;;;;4874295;29;20668;-63
2023/12/03 00:48:35;;;;;;;88.67;33.73;;;;;;;;;;4872898;29;20302;-62
2023/12/03 00:51:01;;;;;;;84.17;33.23;;;;;;;;;;4874414;29;20302;-62
2023/12/03 00:53:27;;;;;;;89.57;31.63;;;;;;;;;;4874530;29;20293;-63
2023/12/03 00:55:54;;;;;;;85.20;32.37;;;;;;;;;;4873424;29;20297;-62
2023/12/03 00:58:20;;;;;;;87.53;34.53;;;;;;;;;;4873062;29;20323;-63
2023/12/03 01:00:46;;;;;;;84.47;36.20;;;;;;;;;;4874172;29;20289;-62
2023/12/03 01:03:12;;;;;;;100.20;36.60;;;;;;;;;;4873404;29;20823;-63
2023/12/03 01:05:38;;;;;;;115.10;40.60;;;;;;;;;;4872553;29;20041;-62
2023/12/03 01:08:04;;;;;;;100.40;39.97;;;;;;;;;;4875680;29;20080;-62
2023/12/03 01:10:31;;;;;;;108.03;39.07;;;;;;;;;;4877419;29;20314;-62
2023/12/03 01:12:57;;;;;;;106.33;41.77;;;;;;;;;;4877224;29;20053;-62
2023/12/03 01:15:23;;;;;;;106.67;39.03;;;;;;;;;;4877800;29;20301;-63
2023/12/03 01:17:49;;;;;;;128.07;45.13;;;;;;;;;;4876016;29;20048;-62
2023/12/03 01:20:16;;;;;;;115.43;40.77;;;;;;;;;;4877924;29;20321;-62
2023/12/03 01:22:42;;;;;;;123.60;43.47;;;;;;;;;;4875823;29;20313;-62
2023/12/03 01:25:08;;;;;;;171.93;49.50;;;;;;;;;;4876231;29;20302;-62
2023/12/03 01:27:34;;;;;;;170.47;50.03;;;;;;;;;;4873329;29;20080;-62
2023/12/03 01:30:00;;;;;;;138.43;47.17;;;;;;;;;;4874913;29;20397;-62
2023/12/03 01:32:26;;;;;;;147.23;47.73;;;;;;;;;;4876894;29;20056;-63
2023/12/03 01:34:52;;;;;;;146.00;49.40;;;;;;;;;;4875848;29;20496;-62
2023/12/03 01:37:18;;;;;;;245.90;63.10;;;;;;;;;;4876488;29;20132;-62
2023/12/03 01:39:45;;;;;;;313.43;74.53;;;;;;;;;;4875599;29;20328;-63
2023/12/03 01:42:12;;;;;;;379.07;80.27;;;;;;;;;;4875353;29;20393;-62
2023/12/03 01:44:37;;;;;;;339.10;75.57;;;;;;;;;;4875013;29;20688;-62
2023/12/03 01:47:05;;;;;;;454.73;90.77;;;;;;;;;;4875765;29;20312;-63
2023/12/03 01:49:31;;;;;;;400.93;83.57;;;;;;;;;;4875519;29;20059;-62
2023/12/03 01:51:58;;;;;;;418.00;86.00;;;;;;;;;;4874865;29;20333;-62
2023/12/03 01:54:38;;;;;;;405.53;86.33;;;;;;;;;;4875626;29;20301;-62
2023/12/03 01:57:04;;;;;;;391.40;84.17;;;;;;;;;;4874000;29;20317;-62
2023/12/03 01:59:31;;;;;;;360.23;75.70;;;;;;;;;;4875872;29;20656;-62
2023/12/03 02:01:57;;;;;;;363.67;76.93;;;;;;;;;;4875188;29;20076;-62
2023/12/03 02:04:23;;;;;;;390.27;81.00;;;;;;;;;;4874799;29;20309;-62
2023/12/03 02:06:49;;;;;;;434.30;85.50;;;;;;;;;;4875674;29;20298;-62
2023/12/03 02:09:16;;;;;;;420.80;84.70;;;;;;;;;;4874005;29;20309;-62
2023/12/03 02:11:46;;;;;;;421.03;84.33;;;;;;;;;;4875851;29;20389;-62
2023/12/03 02:14:12;;;;;;;474.27;89.23;;;;;;;;;;4875024;29;20313;-62
2023/12/03 02:16:38;;;;;;;411.43;80.10;;;;;;;;;;4874428;29;20301;-62
2023/12/03 02:19:04;;;;;;;362.53;75.00;;;;;;;;;;4875052;29;20409;-62
2023/12/03 02:21:30;;;;;;;426.93;82.40;;;;;;;;;;4876253;29;20289;-62
2023/12/03 02:23:56;;;;;;;436.63;93.30;;;;;;;;;;4872365;29;20369;-62
2023/12/03 02:26:22;;;;;;;430.90;83.70;;;;;;;;;;4870648;29;20313;-62
2023/12/03 02:28:48;;;;;;;422.37;82.70;;;;;;;;;;4868371;29;20461;-62
2023/12/03 02:31:14;;;;;;;444.27;87.60;;;;;;;;;;4875050;29;20071;-62
2023/12/03 02:33:47;;;;;;;485.83;91.80;;;;;;;;;;4873177;29;20361;-62
2023/12/03 02:36:13;;;;;;;457.00;84.67;;;;;;;;;;4873333;29;20302;-62
2023/12/03 02:38:39;;;;;;;449.30;84.77;;;;;;;;;;4872533;29;20400;-62
2023/12/03 02:41:05;;;;;;;455.33;86.90;;;;;;;;;;4875100;29;20041;-62
2023/12/03 02:43:31;;;;;;;423.93;84.37;;;;;;;;;;4872844;29;20049;-62
2023/12/03 02:45:57;;;;;;;452.23;84.37;;;;;;;;;;4875193;29;20310;-62
2023/12/03 02:48:23;;;;;;;410.33;79.60;;;;;;;;;;4875127;29;20057;-62
2023/12/03 02:50:49;;;;;;;460.33;86.50;;;;;;;;;;4874350;29;20316;-62
2023/12/03 02:53:15;;;;;;;455.10;84.80;;;;;;;;;;4874281;29;20297;-62
2023/12/03 02:55:41;;;;;;;356.33;67.17;;;;;;;;;;4873500;29;20478;-62
2023/12/03 02:58:07;;;;;;;450.63;81.90;;;;;;;;;;4874447;29;20059;-62
2023/12/03 03:00:34;;;;;;;512.63;88.17;;;;;;;;;;4873904;29;20452;-62
2023/12/03 03:03:00;;;;;;;442.13;80.97;;;;;;;;;;4869464;29;20824;-62
2023/12/03 03:05:26;;;;;;;443.20;80.07;;;;;;;;;;4877742;29;20462;-63
2023/12/03 03:07:52;;;;;;;411.13;74.43;;;;;;;;;;4875135;29;20057;-62
2023/12/03 03:10:18;;;;;;;426.67;81.87;;;;;;;;;;4882749;29;20049;-62
2023/12/03 03:12:44;;;;;;;399.90;73.17;;;;;;;;;;4894150;29;20044;-63
2023/12/03 03:15:10;;;;;;;447.17;84.80;;;;;;;;;;4885158;29;20049;-62
2023/12/03 03:17:36;;;;;;;491.17;83.67;;;;;;;;;;4875173;29;20071;-62
2023/12/03 03:20:02;;;;;;;350.33;67.83;;;;;;;;;;4875328;29;20504;-62
2023/12/03 03:22:28;;;;;;;309.37;62.60;;;;;;;;;;4874819;29;20064;-62
2023/12/03 03:24:54;;;;;;;392.20;75.23;;;;;;;;;;4874247;29;20293;-62
2023/12/03 03:27:20;;;;;;;333.57;68.63;;;;;;;;;;4875018;29;20037;-63
2023/12/03 03:29:46;;;;;;;306.27;63.43;;;;;;;;;;4875013;29;20056;-63
2023/12/03 03:32:12;;;;;;;341.70;66.03;;;;;;;;;;4874566;29;20132;-62
2023/12/03 03:34:38;;;;;;;308.77;69.10;;;;;;;;;;4872607;29;20045;-63
2023/12/03 03:37:05;;;;;;;347.90;66.93;;;;;;;;;;4874773;29;20055;-62
2023/12/03 03:39:31;;;;;;;249.33;56.57;;;;;;;;;;4875097;29;20104;-62
2023/12/03 03:41:57;;;;;;;260.87;58.60;;;;;;;;;;4872141;29;20045;-63
2023/12/03 03:44:23;;;;;;;295.43;62.60;;;;;;;;;;4871539;29;20048;-62
2023/12/03 03:46:49;;;;;;;216.10;49.23;;;;;;;;;;4873311;29;20381;-62
2023/12/03 03:49:15;;;;;;;208.50;50.40;;;;;;;;;;4873402;29;20488;-63
2023/12/03 03:51:41;;;;;;;221.30;49.57;;;;;;;;;;4874373;29;20290;-62
2023/12/03 03:54:07;;;;;;;271.33;53.37;;;;;;;;;;4874352;29;20056;-63
2023/12/03 03:56:33;;;;;;;269.20;54.10;;;;;;;;;;4874335;29;20305;-63
2023/12/03 03:58:59;;;;;;;226.73;52.23;;;;;;;;;;4873966;29;20313;-63
2023/12/03 04:01:25;;;;;;;240.53;53.40;;;;;;;;;;4874753;29;20048;-63
2023/12/03 04:03:51;;;;;;;259.40;52.40;;;;;;;;;;4874321;29;20049;-63
2023/12/03 04:06:17;;;;;;;235.27;51.20;;;;;;;;;;4874306;29;20045;-63
2023/12/03 04:08:43;;;;;;;252.40;54.43;;;;;;;;;;4874358;29;20048;-62
2023/12/03 04:11:09;;;;;;;250.27;49.60;;;;;;;;;;4873623;29;20724;-62
2023/12/03 04:13:37;;;;;;;184.80;46.43;;;;;;;;;;4874399;29;20045;-62
2023/12/03 04:16:03;;;;;;;246.47;48.93;;;;;;;;;;4874676;29;20056;-62
2023/12/03 04:18:29;;;;;;;320.00;57.87;;;;;;;;;;4874314;29;20404;-63
2023/12/03 04:20:55;;;;;;;278.50;53.67;;;;;;;;;;4874423;29;20948;-63
2023/12/03 04:23:21;;;;;;;227.33;49.53;;;;;;;;;;4873452;29;20068;-62
2023/12/03 04:25:47;;;;;;;271.77;49.93;;;;;;;;;;4874276;29;20107;-63
2023/12/03 04:28:13;;;;;;;306.70;54.67;;;;;;;;;;4873716;29;20308;-62
2023/12/03 04:30:39;;;;;;;292.00;54.73;;;;;;;;;;4874124;29;20053;-63
2023/12/03 04:33:05;;;;;;;312.30;53.13;;;;;;;;;;4874103;29;20068;-62
2023/12/03 04:35:32;;;;;;;318.10;56.43;;;;;;;;;;4874117;29;20547;-63
2023/12/03 04:37:58;;;;;;;298.37;54.23;;;;;;;;;;4873571;29;20057;-62
2023/12/03 04:40:24;;;;;;;308.13;57.27;;;;;;;;;;4873615;29;20298;-62
2023/12/03 04:42:50;;;;;;;285.30;55.30;;;;;;;;;;4875138;29;20045;-63
2023/12/03 04:45:16;;;;;;;300.30;60.20;;;;;;;;;;4877391;29;20044;-62
2023/12/03 04:47:42;;;;;;;303.17;60.97;;;;;;;;;;4877316;29;20060;-62
2023/12/03 04:50:08;;;;;;;304.37;57.63;;;;;;;;;;4877233;29;20520;-62
2023/12/03 04:52:33;;;;;;;328.63;60.70;;;;;;;;;;4877166;29;20049;-62
2023/12/03 04:54:59;;;;;;;350.90;63.00;;;;;;;;;;4877483;29;20060;-62
2023/12/03 04:57:25;;;;;;;357.10;65.67;;;;;;;;;;4878137;29;20081;-63
2023/12/03 04:59:51;;;;;;;355.17;61.87;;;;;;;;;;4877963;29;20203;-63
2023/12/03 05:02:17;;;;;;;341.77;62.60;;;;;;;;;;4877636;29;20052;-63
2023/12/03 05:04:43;;;;;;;325.03;57.37;;;;;;;;;;4876921;29;20125;-63
2023/12/03 05:07:09;;;;;;;281.73;56.93;;;;;;;;;;4878058;29;20153;-63
2023/12/03 05:09:39;;;;;;;248.30;51.80;;;;;;;;;;4877000;29;20408;-63
2023/12/03 05:12:05;;;;;;;272.57;53.30;;;;;;;;;;4877155;29;20061;-63
2023/12/03 05:14:32;;;;;;;213.13;49.07;;;;;;;;;;4877025;29;21601;-63
2023/12/03 05:16:58;;;;;;;268.37;52.83;;;;;;;;;;4875987;29;20052;-63
2023/12/03 05:19:24;;;;;;;251.40;50.37;;;;;;;;;;4877047;29;20118;-63
2023/12/03 05:21:50;;;;;;;243.80;51.57;;;;;;;;;;4876866;29;20503;-63
2023/12/03 05:24:16;;;;;;;182.63;43.33;;;;;;;;;;4876706;29;20067;-63
2023/12/03 05:26:42;;;;;;;174.87;40.77;;;;;;;;;;4868232;29;20321;-63
2023/12/03 05:29:08;;;;;;;190.87;42.23;;;;;;;;;;4877397;29;20137;-63
2023/12/03 05:31:34;;;;;;;173.90;42.60;;;;;;;;;;4876860;29;20388;-63
2023/12/03 05:34:00;;;;;;;223.67;45.23;;;;;;;;;;4876717;29;20056;-63
2023/12/03 05:36:26;;;;;;;207.87;47.00;;;;;;;;;;4876440;29;20052;-63
2023/12/03 05:38:53;;;;;;;195.30;44.83;;;;;;;;;;4876528;29;20522;-63
2023/12/03 05:41:19;;;;;;;162.67;40.83;;;;;;;;;;4876599;29;20136;-63
2023/12/03 05:43:45;;;;;;;154.10;41.83;;;;;;;;;;4875372;29;20494;-63
2023/12/03 05:46:11;;;;;;;170.00;43.67;;;;;;;;;;4877506;29;20049;-63
2023/12/03 05:48:37;;;;;;;135.93;35.90;;;;;;;;;;4876733;29;20393;-63
2023/12/03 05:51:08;;;;;;;145.00;37.80;;;;;;;;;;4876139;29;20424;-63
2023/12/03 05:53:34;;;;;;;187.33;41.10;;;;;;;;;;4875219;29;20492;-63
2023/12/03 05:56:00;;;;;;;179.93;39.87;;;;;;;;;;4876003;29;20069;-63
2023/12/03 05:58:26;;;;;;;191.47;42.30;;;;;;;;;;4875759;29;20492;-63
2023/12/03 06:00:52;;;;;;;179.57;43.53;;;;;;;;;;4875588;29;20089;-63
2023/12/03 06:03:18;;;;;;;166.27;42.67;;;;;;;;;;4876280;29;20419;-64
2023/12/03 06:05:44;;;;;;;180.93;45.53;;;;;;;;;;4876733;29;20045;-62
2023/12/03 06:08:10;;;;;;;193.00;44.97;;;;;;;;;;4873815;29;20055;-64
2023/12/03 06:10:36;;;;;;;196.63;43.40;;;;;;;;;;4869934;29;20416;-63
2023/12/03 06:13:02;;;;;;;189.43;43.40;;;;;;;;;;4868066;29;20041;-63
2023/12/03 06:15:28;;;;;;;169.87;43.10;;;;;;;;;;4867731;29;20079;-63
2023/12/03 06:17:54;;;;;;;149.80;40.70;;;;;;;;;;4865760;29;20475;-63
2023/12/03 06:20:20;;;;;;;172.27;40.70;;;;;;;;;;4869732;29;20108;-62
2023/12/03 06:22:46;;;;;;;190.43;41.17;;;;;;;;;;4867611;29;20448;-62
2023/12/03 06:25:12;;;;;;;185.03;40.97;;;;;;;;;;4867467;29;20092;-62
2023/12/03 06:27:38;;;;;;;168.40;36.73;;;;;;;;;;4867900;29;20056;-62
2023/12/03 06:30:04;;;;;;;139.47;37.07;;;;;;;;;;4867055;29;20473;-62
2023/12/03 06:32:30;;;;;;;133.10;35.37;;;;;;;;;;4871151;29;20041;-63
2023/12/03 06:34:56;;;;;;;103.60;29.50;;;;;;;;;;4863920;29;20548;-62
2023/12/03 06:37:22;;;;;;;120.30;31.67;;;;;;;;;;4870793;29;20052;-62
2023/12/03 06:39:48;;;;;;;139.40;32.87;;;;;;;;;;4875148;29;20060;-63
2023/12/03 06:42:14;;;;;;;155.63;34.07;;;;;;;;;;4875599;29;20060;-62
2023/12/03 06:44:40;;;;;;;98.93;26.47;;;;;;;;;;4876101;29;20118;-62
2023/12/03 06:47:06;;;;;;;105.73;28.93;;;;;;;;;;4876085;29;20405;-62
2023/12/03 06:49:32;;;;;;;103.33;29.53;;;;;;;;;;4876140;29;20049;-62
2023/12/03 06:51:58;;;;;;;107.13;28.77;;;;;;;;;;4874666;29;20061;-62
2023/12/03 06:54:25;;;;;;;120.00;30.13;;;;;;;;;;4876030;29;20049;-62
2023/12/03 06:56:51;;;;;;;118.37;30.73;;;;;;;;;;4876170;29;20045;-63
2023/12/03 06:59:17;;;;;;;120.37;31.53;;;;;;;;;;4874565;29;20099;-62
2023/12/03 07:01:42;;;;;;;124.30;29.47;;;;;;;;;;4875171;29;20045;-62
2023/12/03 07:04:08;;;;;;;115.03;32.00;;;;;;;;;;4874177;29;20049;-62
2023/12/03 07:06:34;;;;;;;108.57;30.67;;;;;;;;;;4875750;29;20053;-62
2023/12/03 07:09:00;;;;;;;128.80;34.77;;;;;;;;;;4875827;29;20783;-62
2023/12/03 07:11:29;;;;;;;136.30;33.00;;;;;;;;;;4876028;29;20097;-62
2023/12/03 07:13:55;;;;;;;124.40;34.23;;;;;;;;;;4875391;29;20121;-62
2023/12/03 07:16:22;;;;;;;130.07;32.90;;;;;;;;;;4876119;29;20045;-63
2023/12/03 07:18:48;;;;;;;111.50;31.97;;;;;;;;;;4875691;29;20063;-62
2023/12/03 07:21:14;;;;;;;118.80;34.33;;;;;;;;;;4875416;29;20504;-62
2023/12/03 07:23:40;;;;;;;120.03;33.37;;;;;;;;;;4874789;29;20056;-62
2023/12/03 07:26:10;;;;;;;110.07;33.70;;;;;;;;;;4875425;29;20409;-62
2023/12/03 07:28:36;;;;;;;122.10;32.77;;;;;;;;;;4874344;29;20412;-62
2023/12/03 07:31:04;;;;;;;137.23;36.70;;;;;;;;;;4874591;29;20503;-62
2023/12/03 07:33:30;;;;;;;119.50;34.40;;;;;;;;;;4875206;29;20522;-62
2023/12/03 07:35:57;;;;;;;132.17;33.87;;;;;;;;;;4875276;29;20120;-62
2023/12/03 07:38:23;;;;;;;104.57;32.63;;;;;;;;;;4874556;29;20420;-62
2023/12/03 07:40:49;;;;;;;111.20;31.03;;;;;;;;;;4875227;29;20420;-62
2023/12/03 07:43:15;;;;;;;112.07;32.27;;;;;;;;;;4874938;29;20056;-62
2023/12/03 07:45:41;;;;;;;100.33;31.90;;;;;;;;;;4875092;29;20516;-63
2023/12/03 07:48:07;;;;;;;110.80;31.93;;;;;;;;;;4873714;29;20045;-62
2023/12/03 07:50:33;;;;;;;113.97;32.60;;;;;;;;;;4873304;29;20100;-62
2023/12/03 07:52:59;;;;;;;128.97;34.97;;;;;;;;;;4874695;29;20103;-62
2023/12/03 07:55:25;;;;;;;110.20;35.87;;;;;;;;;;4874723;29;20064;-63
2023/12/03 07:57:51;;;;;;;116.47;35.93;;;;;;;;;;4873985;29;20592;-62
2023/12/03 08:00:17;;;;;;;129.07;36.90;;;;;;;;;;4874713;29;20049;-62
2023/12/03 08:02:43;;;;;;;124.60;36.43;;;;;;;;;;4874691;29;20052;-62
2023/12/03 08:05:09;;;;;;;141.77;37.80;;;;;;;;;;4874496;29;20052;-62
2023/12/03 08:07:35;;;;;;;123.10;37.40;;;;;;;;;;4874640;29;20045;-62
2023/12/03 08:10:02;;;;;;;124.37;37.73;;;;;;;;;;4874090;29;20048;-62
2023/12/03 08:12:29;;;;;;;109.00;36.17;;;;;;;;;;4874211;29;20083;-63
2023/12/03 08:14:55;;;;;;;116.53;35.97;;;;;;;;;;4874213;29;20810;-62
2023/12/03 08:17:21;;;;;;;122.53;39.27;;;;;;;;;;4874773;29;20060;-62
2023/12/03 08:19:47;;;;;;;126.57;38.23;;;;;;;;;;4874366;29;20053;-62
2023/12/03 08:22:13;;;;;;;106.00;37.70;;;;;;;;;;4874114;29;20061;-62
2023/12/03 08:24:39;;;;;;;117.30;39.87;;;;;;;;;;4873596;29;20057;-62
2023/12/03 08:27:05;;;;;;;108.07;37.40;;;;;;;;;;4874657;29;20053;-62
2023/12/03 08:29:32;;;;;;;104.13;38.83;;;;;;;;;;4874338;29;20045;-62
2023/12/03 08:31:58;;;;;;;122.33;40.53;;;;;;;;;;4874185;29;20060;-62
2023/12/03 08:34:25;;;;;;;106.87;39.40;;;;;;;;;;4874077;29;20053;-63
2023/12/03 08:36:51;;;;;;;105.13;41.87;;;;;;;;;;4873833;29;20528;-62
2023/12/03 08:39:17;;;;;;;101.90;38.23;;;;;;;;;;4874300;29;20405;-62
2023/12/03 08:41:43;;;;;;;95.50;39.37;;;;;;;;;;4874045;29;20049;-62
2023/12/03 08:44:09;;;;;;;104.97;41.23;;;;;;;;;;4874150;29;20053;-62
2023/12/03 08:46:35;;;;;;;89.50;37.37;;;;;;;;;;4874381;29;20049;-62
2023/12/03 08:49:01;;;;;;;99.70;40.33;;;;;;;;;;4873967;29;20065;-62
2023/12/03 08:51:27;;;;;;;89.97;40.10;;;;;;;;;;4873933;29;20041;-62
2023/12/03 08:53:55;;;;;;;83.67;39.27;;;;;;;;;;4873923;29;20045;-62
2023/12/03 08:56:21;;;;;;;92.87;40.47;;;;;;;;;;4874205;29;20061;-62
2023/12/03 08:58:48;;;;;;;94.77;41.30;;;;;;;;;;4872752;29;20049;-62
2023/12/03 09:01:14;;;;;;;87.33;39.97;;;;;;;;;;4873390;29;20535;-62
2023/12/03 09:03:40;;;;;;;89.40;39.73;;;;;;;;;;4874114;29;20053;-62
2023/12/03 09:06:07;;;;;;;82.53;40.13;;;;;;;;;;4873923;29;20101;-62
2023/12/03 09:08:33;;;;;;;94.93;43.13;;;;;;;;;;4874114;29;20538;-63
2023/12/03 09:10:59;;;;;;;80.27;40.17;;;;;;;;;;4873765;29;20052;-63
2023/12/03 09:13:25;;;;;;;79.57;39.57;;;;;;;;;;4874482;29;20053;-63
2023/12/03 09:15:51;;;;;;;90.97;41.17;;;;;;;;;;4874037;29;20052;-63
2023/12/03 09:18:17;;;;;;;73.63;36.33;;;;;;;;;;4873445;29;20057;-63
2023/12/03 09:20:43;;;;;;;67.47;35.73;;;;;;;;;;4874262;29;20556;-63
2023/12/03 09:23:09;;;;;;;71.23;36.30;;;;;;;;;;4873759;29;20390;-63
2023/12/03 09:25:35;;;;;;;67.93;35.40;;;;;;;;;;4873688;29;20048;-63
2023/12/03 09:28:01;;;;;;;72.37;36.47;;;;;;;;;;4872992;29;20045;-63
2023/12/03 09:30:27;;;;;;;69.00;36.67;;;;;;;;;;4877013;29;20836;-63
2023/12/03 09:32:53;;;;;;;66.13;35.73;;;;;;;;;;4875938;29;20093;-63
2023/12/03 09:35:20;;;;;;;62.50;34.40;;;;;;;;;;4877537;29;20325;-63
2023/12/03 09:37:46;;;;;;;67.20;35.43;;;;;;;;;;4877363;29;20290;-63
2023/12/03 09:40:13;;;;;;;68.53;35.83;;;;;;;;;;4876340;29;20045;-63
2023/12/03 09:42:40;;;;;;;62.00;32.23;;;;;;;;;;4877166;29;20819;-63
2023/12/03 09:45:09;;;;;;;65.23;35.93;;;;;;;;;;4876718;29;20049;-63
2023/12/03 09:47:36;;;;;;;59.83;33.13;;;;;;;;;;4876328;29;20049;-63
2023/12/03 09:50:04;;;;;;;61.87;33.27;;;;;;;;;;4876886;29;20048;-63
2023/12/03 09:52:31;;;;;;;61.67;34.53;;;;;;;;;;4875841;29;20048;-63
2023/12/03 09:55:00;;;;;;;52.73;30.67;;;;;;;;;;4877098;29;20056;-63
2023/12/03 09:57:29;;;;;;;45.23;25.97;;;;;;;;;;4865270;29;20515;-63
2023/12/03 09:59:57;;;;;;;39.77;23.20;;;;;;;;;;4877120;29;20080;-63
2023/12/03 10:02:28;;;;;;;38.83;23.17;;;;;;;;;;4872997;29;20523;-63
2023/12/03 10:04:55;;;;;;;41.77;24.70;;;;;;;;;;4865731;29;20452;-63
2023/12/03 10:07:23;;;;;;;39.07;21.87;;;;;;;;;;4874166;29;20056;-63
2023/12/03 10:09:50;;;;;;;47.23;24.37;;;;;;;;;;4865615;29;20053;-63
2023/12/03 10:12:17;;;;;;;35.50;21.60;;;;;;;;;;4875474;29;20051;-63
2023/12/03 10:14:45;;;;;;;37.10;22.73;;;;;;;;;;4877054;29;20519;-63
2023/12/03 10:17:18;;;;;;;38.70;23.00;;;;;;;;;;4876610;29;20428;-63
2023/12/03 10:19:44;;;;;;;40.13;22.35;;;;;;;;;;4876564;29;20061;-63
2023/12/03 10:22:10;;;;;;;44.23;26.00;;;;;;;;;;4895079;29;20163;-63
2023/12/03 10:24:46;;;;;;;40.30;23.80;;;;;;;;;;4877900;29;20266;-63
2023/12/03 10:27:12;;;;;;;48.60;25.87;;;;;;;;;;4875650;29;20089;-63
2023/12/03 10:29:38;;;;;;;42.83;24.47;;;;;;;;;;4892368;29;20084;-63
2023/12/03 10:32:05;;;;;;;40.40;24.73;;;;;;;;;;4884544;29;20056;-63
2023/12/03 10:34:31;;;;;;;42.13;23.27;;;;;;;;;;4891170;29;20049;-63
2023/12/03 10:36:57;;;;;;;44.63;24.80;;;;;;;;;;4882148;29;20057;-63
2023/12/03 10:39:23;;;;;;;44.73;25.17;;;;;;;;;;4875070;29;20056;-63
2023/12/03 10:41:49;;;;;;;46.70;23.47;;;;;;;;;;4873660;29;20049;-63
2023/12/03 10:44:19;;;;;;;44.57;25.87;;;;;;;;;;4874634;29;20488;-63
2023/12/03 10:46:45;;;;;;;44.87;25.57;;;;;;;;;;4871262;29;20140;-63
2023/12/03 10:49:12;;;;;;;46.90;23.80;;;;;;;;;;4875483;29;20570;-63
2023/12/03 10:51:46;;;;;;;51.13;26.60;;;;;;;;;;4876542;29;20870;-63
2023/12/03 10:54:12;;;;;;;42.93;24.47;;;;;;;;;;4875991;29;20368;-64
2023/12/03 10:56:40;;;;;;;48.83;26.53;;;;;;;;;;4876220;29;20400;-63
2023/12/03 10:59:09;;;;;;;44.00;24.03;;;;;;;;;;4875224;29;20044;-63
2023/12/03 11:01:39;;;;;;;44.63;24.70;;;;;;;;;;4866548;29;20417;-63
2023/12/03 11:04:15;;;;;;;46.83;27.80;;;;;;;;;;4874471;29;20048;-63
2023/12/03 11:06:42;;;;;;;45.33;25.37;;;;;;;;;;4872836;29;20060;-63
2023/12/03 11:09:08;;;;;;;52.93;30.90;;;;;;;;;;4875562;29;20540;-63
2023/12/03 11:11:34;;;;;;;53.50;28.97;;;;;;;;;;4876102;29;20052;-63
2023/12/03 11:14:01;;;;;;;54.00;29.50;;;;;;;;;;4874861;29;20048;-63
2023/12/03 11:16:32;;;;;;;55.17;30.27;;;;;;;;;;4876293;29;20170;-63
2023/12/03 11:19:01;;;;;;;51.23;28.97;;;;;;;;;;4885027;29;20068;-63
2023/12/03 11:21:34;;;;;;;58.93;30.00;;;;;;;;;;4875398;29;20161;-63
2023/12/03 11:24:09;;;;;;;58.77;30.77;;;;;;;;;;4874933;29;20138;-63
2023/12/03 11:26:35;;;;;;;57.33;31.37;;;;;;;;;;4875515;29;20053;-63
2023/12/03 11:29:01;;;;;;;61.63;32.03;;;;;;;;;;4875709;29;20056;-63
2023/12/03 11:31:27;;;;;;;59.13;31.77;;;;;;;;;;4874326;29;20052;-63
2023/12/03 11:34:00;;;;;;;60.13;31.00;;;;;;;;;;4875204;29;20068;-63
2023/12/03 11:36:44;;;;;;;58.60;31.43;;;;;;;;;;4875488;29;20045;-63
2023/12/03 11:39:11;;;;;;;54.20;30.00;;;;;;;;;;4874204;29;20053;-63
2023/12/03 11:41:39;;;;;;;57.07;28.70;;;;;;;;;;4874373;29;20464;-63
2023/12/03 11:44:27;;;;;;;52.50;30.40;;;;;;;;;;4875138;29;20056;-63
2023/12/03 11:47:02;;;;;;;55.90;30.20;;;;;;;;;;4875407;29;20053;-63
2023/12/03 11:49:33;;;;;;;51.47;28.43;;;;;;;;;;4875012;29;20049;-63
2023/12/03 11:51:59;;;;;;;42.37;26.17;;;;;;;;;;4859096;29;20045;-63
2023/12/03 11:54:26;;;;;;;45.57;25.00;;;;;;;;;;4873955;29;20401;-63
2023/12/03 11:56:53;;;;;;;37.97;22.80;;;;;;;;;;4875091;29;20592;-63
2023/12/03 11:59:19;;;;;;;38.33;23.70;;;;;;;;;;4886860;29;20056;-63
2023/12/03 12:01:45;;;;;;;38.13;20.70;;;;;;;;;;4874026;29;20053;-63
2023/12/03 12:04:21;;;;;;;36.07;21.13;;;;;;;;;;4878878;29;20044;-63
2023/12/03 12:06:47;;;;;;;36.63;19.93;;;;;;;;;;4890330;29;20071;-63
2023/12/03 12:09:21;;;;;;;31.03;18.80;;;;;;;;;;4877201;29;20071;-63
2023/12/03 12:11:48;;;;;;;32.97;19.60;;;;;;;;;;4873844;29;20049;-63
2023/12/03 12:14:14;;;;;;;28.93;16.43;;;;;;;;;;4873220;29;20763;-63
2023/12/03 12:16:40;;;;;;;26.60;16.57;;;;;;;;;;4873263;29;20575;-63
2023/12/03 12:19:06;;;;;;;32.00;17.97;;;;;;;;;;4874665;29;20412;-63
2023/12/03 12:21:32;;;;;;;32.73;17.87;;;;;;;;;;4877727;29;20056;-63
2023/12/03 12:23:58;;;;;;;30.30;16.73;;;;;;;;;;4877610;29;20091;-63
2023/12/03 12:26:24;;;;;;;27.67;16.37;;;;;;;;;;4877822;29;20465;-63
2023/12/03 12:28:51;;;;;;;28.60;16.93;;;;;;;;;;4873477;29;20045;-63
2023/12/03 12:31:19;;;;;;;30.37;17.20;;;;;;;;;;4874836;29;20041;-63
2023/12/03 12:33:45;;;;;;;28.43;16.50;;;;;;;;;;4873667;29;20053;-63
2023/12/03 12:36:12;;;;;;;29.37;16.70;;;;;;;;;;4873838;29;20588;-63
2023/12/03 12:38:41;;;;;;;27.13;15.53;;;;;;;;;;4872509;29;20136;-63
2023/12/03 12:41:09;;;;;;;26.73;15.53;;;;;;;;;;4879437;29;20092;-63
2023/12/03 12:43:35;;;;;;;26.90;15.13;;;;;;;;;;4887144;29;20520;-63
2023/12/03 12:46:09;;;;;;;26.47;14.73;;;;;;;;;;4883889;29;20053;-63
2023/12/03 12:48:35;;;;;;;24.40;14.40;;;;;;;;;;4873071;29;20045;-63
2023/12/03 12:51:02;;;;;;;27.07;14.07;;;;;;;;;;4874574;29;20055;-63
2023/12/03 12:53:47;;;;;;;25.27;14.53;;;;;;;;;;4873666;29;20187;-63
2023/12/03 12:56:14;;;;;;;26.77;14.80;;;;;;;;;;4873617;29;20049;-63
2023/12/03 12:58:40;;;;;;;26.97;13.73;;;;;;;;;;4874466;29;20135;-64
2023/12/03 13:01:07;;;;;;;27.93;13.97;;;;;;;;;;4884333;29;20053;-63
2023/12/03 13:03:33;;;;;;;28.17;14.60;;;;;;;;;;4889481;29;20056;-63
2023/12/03 13:05:59;;;;;;;31.23;17.87;;;;;;;;;;4877716;29;20049;-63
2023/12/03 13:08:25;;;;;;;32.30;17.23;;;;;;;;;;4878296;29;20064;-63
2023/12/03 13:10:51;;;;;;;31.60;16.97;;;;;;;;;;4877959;29;20104;-63
2023/12/03 13:13:17;;;;;;;28.87;15.73;;;;;;;;;;4877322;29;20584;-63
2023/12/03 13:15:43;;;;;;;26.90;16.13;;;;;;;;;;4877047;29;20049;-63
2023/12/03 13:18:09;;;;;;;31.30;17.40;;;;;;;;;;4888296;29;20104;-63
2023/12/03 13:20:35;;;;;;;27.00;15.63;;;;;;;;;;4895637;29;20064;-63
2023/12/03 13:23:01;;;;;;;30.67;16.50;;;;;;;;;;4896094;29;20064;-63
2023/12/03 13:25:27;;;;;;;31.80;16.77;;;;;;;;;;4889372;29;20147;-63
2023/12/03 13:27:53;;;;;;;30.67;16.27;;;;;;;;;;4877223;29;20045;-63
2023/12/03 13:30:19;;;;;;;30.00;15.90;;;;;;;;;;4877812;29;20056;-63
2023/12/03 13:32:45;;;;;;;29.20;17.10;;;;;;;;;;4876588;29;20133;-63
2023/12/03 13:35:15;;;;;;;27.63;16.87;;;;;;;;;;4877444;29;20056;-63
2023/12/03 13:37:43;;;;;;;33.03;17.20;;;;;;;;;;4877490;29;20049;-63
2023/12/03 13:40:10;;;;;;;31.40;16.60;;;;;;;;;;4877633;29;20267;-63
2023/12/03 13:42:36;;;;;;;28.50;16.27;;;;;;;;;;4876665;29;20057;-63
2023/12/03 13:45:05;;;;;;;29.47;15.93;;;;;;;;;;4877090;29;20108;-63
2023/12/03 13:47:32;;;;;;;29.27;17.23;;;;;;;;;;4877006;29;20096;-63
2023/12/03 13:49:59;;;;;;;33.43;18.07;;;;;;;;;;4877313;29;20044;-62
2023/12/03 13:52:25;;;;;;;33.47;17.23;;;;;;;;;;4876879;29;20124;-63
2023/12/03 13:54:51;;;;;;;35.40;17.30;;;;;;;;;;4875804;29;20048;-63
2023/12/03 13:57:17;;;;;;;33.30;15.37;;;;;;;;;;4877184;29;20060;-63
2023/12/03 13:59:44;;;;;;;32.03;16.27;;;;;;;;;;4877012;29;20428;-63
2023/12/03 14:02:10;;;;;;;30.30;15.77;;;;;;;;;;4877121;29;20056;-63
2023/12/03 14:04:39;;;;;;;28.70;15.77;;;;;;;;;;4875466;29;20052;-63
2023/12/03 14:07:06;;;;;;;30.53;14.93;;;;;;;;;;4876552;29;20045;-63
2023/12/03 14:09:32;;;;;;;26.10;15.73;;;;;;;;;;4890619;29;20041;-63